createdAt,value
2023-04-15T00:00:07.220Z,16.95
2023-04-15T00:00:21.202Z,16.93
2023-04-15T00:00:35.185Z,16.93
2023-04-15T00:01:03.131Z,16.95
2023-04-15T00:01:17.113Z,16.95
2023-04-15T00:01:31.094Z,16.95
2023-04-15T00:01:45.149Z,16.93
2023-04-15T00:02:13.235Z,16.95
2023-04-15T00:02:27.485Z,16.93
2023-04-15T00:02:41.703Z,16.95
2023-04-15T00:02:55.977Z,16.93
2023-04-15T00:03:24.225Z,16.95
2023-04-15T00:03:38.539Z,16.95
2023-04-15T00:03:52.902Z,16.93
2023-04-15T00:04:07.017Z,16.95
2023-04-15T00:04:21.143Z,16.95
2023-04-15T00:04:35.237Z,16.95
2023-04-15T00:04:49.328Z,16.95
2023-04-15T00:05:03.635Z,16.95
2023-04-15T00:05:17.632Z,16.93
2023-04-15T00:05:45.598Z,16.95
2023-04-15T00:05:59.589Z,16.93
2023-04-15T00:06:13.578Z,16.93
2023-04-15T00:06:27.561Z,16.95
2023-04-15T00:06:55.513Z,16.95
2023-04-15T00:07:09.492Z,16.93
2023-04-15T00:07:23.485Z,16.95
2023-04-15T00:07:37.468Z,16.95
2023-04-15T00:08:05.459Z,16.93
2023-04-15T00:08:19.470Z,16.95
2023-04-15T00:08:33.478Z,16.93
2023-04-15T00:08:47.535Z,16.95
2023-04-15T00:09:15.493Z,16.93
2023-04-15T00:09:29.480Z,16.93
2023-04-15T00:09:43.461Z,16.95
2023-04-15T00:09:57.440Z,16.93
2023-04-15T00:10:25.397Z,16.93
2023-04-15T00:10:39.390Z,16.93
2023-04-15T00:10:53.385Z,16.93
2023-04-15T00:11:07.383Z,16.95
2023-04-15T00:11:35.345Z,16.93
2023-04-15T00:11:49.350Z,16.92
2023-04-15T00:12:03.331Z,16.93
2023-04-15T00:12:17.330Z,16.93
2023-04-15T00:12:45.291Z,16.93
2023-04-15T00:12:59.283Z,16.95
2023-04-15T00:13:13.279Z,16.93
2023-04-15T00:13:27.290Z,16.95
2023-04-15T00:13:55.272Z,16.93
2023-04-15T00:14:09.265Z,16.93
2023-04-15T00:14:23.249Z,16.93
2023-04-15T00:14:37.246Z,16.93
2023-04-15T00:15:05.242Z,16.93
2023-04-15T00:15:19.235Z,16.93
2023-04-15T00:15:33.229Z,16.93
2023-04-15T00:15:47.229Z,16.93
2023-04-15T00:16:15.266Z,16.93
2023-04-15T00:16:29.297Z,16.92
2023-04-15T00:16:43.331Z,16.93
2023-04-15T00:16:57.420Z,16.93
2023-04-15T00:17:25.534Z,16.93
2023-04-15T00:17:39.557Z,16.93
2023-04-15T00:17:53.584Z,16.93
2023-04-15T00:18:07.567Z,16.93
2023-04-15T00:18:35.507Z,16.93
2023-04-15T00:18:49.512Z,16.93
2023-04-15T00:19:03.570Z,16.93
2023-04-15T00:19:17.618Z,16.92
2023-04-15T00:19:45.570Z,16.92
2023-04-15T00:19:59.551Z,16.93
2023-04-15T00:20:13.549Z,16.92
2023-04-15T00:20:27.533Z,16.95
2023-04-15T00:20:55.494Z,16.93
2023-04-15T00:21:09.503Z,16.93
2023-04-15T00:21:23.493Z,16.93
2023-04-15T00:21:37.496Z,16.93
2023-04-15T00:21:51.503Z,16.92
2023-04-15T00:22:05.504Z,16.93
2023-04-15T00:22:19.484Z,16.93
2023-04-15T00:22:33.467Z,16.93
2023-04-15T00:22:47.479Z,16.93
2023-04-15T00:23:15.422Z,16.93
2023-04-15T00:23:29.396Z,16.93
2023-04-15T00:23:43.392Z,16.92
2023-04-15T00:23:57.402Z,16.92
2023-04-15T00:24:25.382Z,16.92
2023-04-15T00:24:39.370Z,16.93
2023-04-15T00:24:53.343Z,16.93
2023-04-15T00:25:07.344Z,16.92
2023-04-15T00:25:35.300Z,16.92
2023-04-15T00:25:49.325Z,16.93
2023-04-15T00:26:03.331Z,16.92
2023-04-15T00:26:17.340Z,16.95
2023-04-15T00:26:45.290Z,16.93
2023-04-15T00:26:59.275Z,16.93
2023-04-15T00:27:13.272Z,16.93
2023-04-15T00:27:27.273Z,16.92
2023-04-15T00:27:55.237Z,16.93
2023-04-15T00:28:09.254Z,16.93
2023-04-15T00:28:23.242Z,16.95
2023-04-15T00:28:37.221Z,16.92
2023-04-15T00:29:05.170Z,16.93
2023-04-15T00:29:19.171Z,16.93
2023-04-15T00:29:33.183Z,16.93
2023-04-15T00:29:47.179Z,16.93
2023-04-15T00:30:15.132Z,16.92
2023-04-15T00:30:29.115Z,16.92
2023-04-15T00:30:43.232Z,16.93
2023-04-15T00:30:57.282Z,16.93
2023-04-15T00:31:25.287Z,16.92
2023-04-15T00:31:39.341Z,16.92
2023-04-15T00:31:53.318Z,16.92
2023-04-15T00:32:07.327Z,16.92
2023-04-15T00:32:35.318Z,16.92
2023-04-15T00:32:49.494Z,16.92
2023-04-15T00:33:03.573Z,16.93
2023-04-15T00:33:17.598Z,16.92
2023-04-15T00:33:45.567Z,16.90
2023-04-15T00:33:59.565Z,16.92
2023-04-15T00:34:13.565Z,16.90
2023-04-15T00:34:27.591Z,16.92
2023-04-15T00:34:41.581Z,16.92
2023-04-15T00:34:55.582Z,16.92
2023-04-15T00:35:09.586Z,16.92
2023-04-15T00:35:23.589Z,16.92
2023-04-15T00:35:37.637Z,16.92
2023-04-15T00:36:05.630Z,16.92
2023-04-15T00:36:19.625Z,16.92
2023-04-15T00:36:33.649Z,16.90
2023-04-15T00:36:47.644Z,16.93
2023-04-15T00:37:15.610Z,16.93
2023-04-15T00:37:29.592Z,16.93
2023-04-15T00:37:45.925Z,16.90
2023-04-15T00:37:57.692Z,16.90
2023-04-15T00:38:25.673Z,16.92
2023-04-15T00:38:39.665Z,16.90
2023-04-15T00:38:53.655Z,16.93
2023-04-15T00:39:07.633Z,16.90
2023-04-15T00:39:21.623Z,16.93
2023-04-15T00:39:35.629Z,16.92
2023-04-15T00:39:49.624Z,16.92
2023-04-15T00:40:03.602Z,16.92
2023-04-15T00:40:17.598Z,16.92
2023-04-15T00:40:45.547Z,16.92
2023-04-15T00:40:59.534Z,16.92
2023-04-15T00:41:14.368Z,16.90
2023-04-15T00:41:28.368Z,16.93
2023-04-15T00:41:56.324Z,16.92
2023-04-15T00:42:10.304Z,16.92
2023-04-15T00:42:24.295Z,16.90
2023-04-15T00:42:38.288Z,16.90
2023-04-15T00:43:06.259Z,16.92
2023-04-15T00:43:20.245Z,16.89
2023-04-15T00:43:34.228Z,16.92
2023-04-15T00:43:48.242Z,16.92
2023-04-15T00:44:16.194Z,16.90
2023-04-15T00:44:30.176Z,16.90
2023-04-15T00:44:44.189Z,16.90
2023-04-15T00:44:58.177Z,16.90
2023-04-15T00:45:26.181Z,16.92
2023-04-15T00:45:40.180Z,16.92
2023-04-15T00:45:54.327Z,16.92
2023-04-15T00:46:08.399Z,16.90
2023-04-15T00:46:36.388Z,16.90
2023-04-15T00:46:50.392Z,16.90
2023-04-15T00:47:04.393Z,16.90
2023-04-15T00:47:18.393Z,16.90
2023-04-15T00:47:46.419Z,16.90
2023-04-15T00:48:00.500Z,16.90
2023-04-15T00:48:14.585Z,16.90
2023-04-15T00:48:28.572Z,16.89
2023-04-15T00:48:56.540Z,16.90
2023-04-15T00:49:10.789Z,16.90
2023-04-15T00:49:24.783Z,16.90
2023-04-15T00:49:38.769Z,16.92
2023-04-15T00:50:06.745Z,16.90
2023-04-15T00:50:20.741Z,16.90
2023-04-15T00:50:34.730Z,16.92
2023-04-15T00:50:48.722Z,16.90
2023-04-15T00:51:16.705Z,16.90
2023-04-15T00:51:30.693Z,16.90
2023-04-15T00:51:44.677Z,16.90
2023-04-15T00:51:58.667Z,16.90
2023-04-15T00:52:26.658Z,16.90
2023-04-15T00:52:40.704Z,16.90
2023-04-15T00:52:54.898Z,16.90
2023-04-15T00:53:08.921Z,16.92
2023-04-15T00:53:36.874Z,16.90
2023-04-15T00:53:50.867Z,16.90
2023-04-15T00:54:04.847Z,16.92
2023-04-15T00:54:18.852Z,16.89
2023-04-15T00:54:46.814Z,16.90
2023-04-15T00:55:00.808Z,16.90
2023-04-15T00:55:14.844Z,16.89
2023-04-15T00:55:28.833Z,16.90
2023-04-15T00:55:56.814Z,16.90
2023-04-15T00:56:10.802Z,16.89
2023-04-15T00:56:24.795Z,16.90
2023-04-15T00:56:38.786Z,16.90
2023-04-15T00:56:52.768Z,16.89
2023-04-15T00:57:06.759Z,16.89
2023-04-15T00:57:20.752Z,16.89
2023-04-15T00:57:34.741Z,16.90
2023-04-15T00:57:48.739Z,16.89
2023-04-15T00:58:16.692Z,16.89
2023-04-15T00:58:30.698Z,16.89
2023-04-15T00:58:44.699Z,16.90
2023-04-15T00:58:59.042Z,16.89
2023-04-15T00:59:27.166Z,16.92
2023-04-15T00:59:41.164Z,16.89
2023-04-15T00:59:55.230Z,16.89
2023-04-15T01:00:09.222Z,16.89
2023-04-15T01:00:37.211Z,16.90
2023-04-15T01:00:51.200Z,16.89
2023-04-15T01:01:05.186Z,16.89
2023-04-15T01:01:19.219Z,16.90
2023-04-15T01:01:47.333Z,16.89
2023-04-15T01:02:01.480Z,16.88
2023-04-15T01:02:15.679Z,16.90
2023-04-15T01:02:29.913Z,16.90
2023-04-15T01:02:58.052Z,16.89
2023-04-15T01:03:12.205Z,16.89
2023-04-15T01:03:26.647Z,16.89
2023-04-15T01:03:40.812Z,16.89
2023-04-15T01:04:09.013Z,16.90
2023-04-15T01:04:23.192Z,16.89
2023-04-15T01:04:37.274Z,16.90
2023-04-15T01:04:51.294Z,16.89
2023-04-15T01:05:05.283Z,16.89
2023-04-15T01:05:19.275Z,16.89
2023-04-15T01:05:33.265Z,16.89
2023-04-15T01:05:47.253Z,16.89
2023-04-15T01:06:03.757Z,16.89
2023-04-15T01:06:29.649Z,16.88
2023-04-15T01:06:43.644Z,16.89
2023-04-15T01:06:57.677Z,16.90
2023-04-15T01:07:11.673Z,16.88
2023-04-15T01:07:39.615Z,16.88
2023-04-15T01:07:54.355Z,16.90
2023-04-15T01:08:08.360Z,16.88
2023-04-15T01:08:22.371Z,16.88
2023-04-15T01:08:50.327Z,16.88
2023-04-15T01:09:04.311Z,16.88
2023-04-15T01:09:18.308Z,16.88
2023-04-15T01:09:32.289Z,16.88
2023-04-15T01:10:00.308Z,16.89
2023-04-15T01:10:14.324Z,16.88
2023-04-15T01:10:28.321Z,16.89
2023-04-15T01:10:42.298Z,16.88
2023-04-15T01:11:10.261Z,16.88
2023-04-15T01:11:24.266Z,16.88
2023-04-15T01:11:38.257Z,16.90
2023-04-15T01:11:52.295Z,16.89
2023-04-15T01:12:20.275Z,16.89
2023-04-15T01:12:34.264Z,16.89
2023-04-15T01:12:48.251Z,16.88
2023-04-15T01:13:02.260Z,16.88
2023-04-15T01:13:30.234Z,16.89
2023-04-15T01:13:44.228Z,16.88
2023-04-15T01:13:58.224Z,16.89
2023-04-15T01:14:12.209Z,16.88
2023-04-15T01:14:40.171Z,16.89
2023-04-15T01:14:54.147Z,16.88
2023-04-15T01:15:08.160Z,16.86
2023-04-15T01:15:22.145Z,16.88
2023-04-15T01:15:50.152Z,16.88
2023-04-15T01:16:04.206Z,16.89
2023-04-15T01:16:18.255Z,16.86
2023-04-15T01:16:32.400Z,16.89
2023-04-15T01:17:00.459Z,16.88
2023-04-15T01:17:14.450Z,16.89
2023-04-15T01:17:28.479Z,16.88
2023-04-15T01:17:42.615Z,16.88
2023-04-15T01:18:10.660Z,16.88
2023-04-15T01:18:24.650Z,16.88
2023-04-15T01:18:38.639Z,16.88
2023-04-15T01:18:52.649Z,16.88
2023-04-15T01:19:20.599Z,16.89
2023-04-15T01:19:34.584Z,16.88
2023-04-15T01:19:48.583Z,16.88
2023-04-15T01:20:02.579Z,16.88
2023-04-15T01:20:30.557Z,16.88
2023-04-15T01:20:44.556Z,16.88
2023-04-15T01:20:58.541Z,16.88
2023-04-15T01:21:12.540Z,16.88
2023-04-15T01:21:40.516Z,16.86
2023-04-15T01:21:54.526Z,16.88
2023-04-15T01:22:08.530Z,16.88
2023-04-15T01:22:22.535Z,16.88
2023-04-15T01:22:50.494Z,16.86
2023-04-15T01:23:04.476Z,16.88
2023-04-15T01:23:18.476Z,16.86
2023-04-15T01:23:32.490Z,16.88
2023-04-15T01:24:00.443Z,16.86
2023-04-15T01:24:14.452Z,16.85
2023-04-15T01:24:28.436Z,16.88
2023-04-15T01:24:42.438Z,16.85
2023-04-15T01:25:10.397Z,16.88
2023-04-15T01:25:24.403Z,16.88
2023-04-15T01:25:38.426Z,16.86
2023-04-15T01:25:52.404Z,16.88
2023-04-15T01:26:20.350Z,16.89
2023-04-15T01:26:34.369Z,16.86
2023-04-15T01:26:48.349Z,16.88
2023-04-15T01:27:02.453Z,16.86
2023-04-15T01:27:30.431Z,16.85
2023-04-15T01:27:44.419Z,16.86
2023-04-15T01:27:58.412Z,16.86
2023-04-15T01:28:12.409Z,16.86
2023-04-15T01:28:40.400Z,16.88
2023-04-15T01:28:54.394Z,16.86
2023-04-15T01:29:08.413Z,16.86
2023-04-15T01:29:22.435Z,16.86
2023-04-15T01:29:50.415Z,16.86
2023-04-15T01:30:04.484Z,16.86
2023-04-15T01:30:18.486Z,16.86
2023-04-15T01:30:32.464Z,16.86
2023-04-15T01:31:00.479Z,16.88
2023-04-15T01:31:14.550Z,16.86
2023-04-15T01:31:28.613Z,16.88
2023-04-15T01:31:42.666Z,16.86
2023-04-15T01:32:10.684Z,16.86
2023-04-15T01:32:24.702Z,16.86
2023-04-15T01:32:38.924Z,16.86
2023-04-15T01:32:52.959Z,16.88
2023-04-15T01:33:20.944Z,16.88
2023-04-15T01:33:34.955Z,16.85
2023-04-15T01:33:48.945Z,16.86
2023-04-15T01:34:02.957Z,16.86
2023-04-15T01:34:30.945Z,16.85
2023-04-15T01:34:44.984Z,16.88
2023-04-15T01:34:58.986Z,16.85
2023-04-15T01:35:12.984Z,16.86
2023-04-15T01:35:40.936Z,16.86
2023-04-15T01:35:54.925Z,16.86
2023-04-15T01:36:08.912Z,16.86
2023-04-15T01:36:22.914Z,16.85
2023-04-15T01:36:50.892Z,16.86
2023-04-15T01:37:04.885Z,16.86
2023-04-15T01:37:18.872Z,16.86
2023-04-15T01:37:32.963Z,16.86
2023-04-15T01:38:00.923Z,16.86
2023-04-15T01:38:14.919Z,16.85
2023-04-15T01:38:28.901Z,16.86
2023-04-15T01:38:42.909Z,16.86
2023-04-15T01:39:10.890Z,16.85
2023-04-15T01:39:24.902Z,16.86
2023-04-15T01:39:38.897Z,16.85
2023-04-15T01:39:52.924Z,16.85
2023-04-15T01:40:20.919Z,16.86
2023-04-15T01:40:34.903Z,16.85
2023-04-15T01:40:48.887Z,16.86
2023-04-15T01:41:02.878Z,16.85
2023-04-15T01:41:30.824Z,16.85
2023-04-15T01:41:44.811Z,16.85
2023-04-15T01:41:58.818Z,16.83
2023-04-15T01:42:12.817Z,16.85
2023-04-15T01:42:40.821Z,16.85
2023-04-15T01:42:54.798Z,16.83
2023-04-15T01:43:08.780Z,16.85
2023-04-15T01:43:22.797Z,16.85
2023-04-15T01:43:50.742Z,16.85
2023-04-15T01:44:04.757Z,16.86
2023-04-15T01:44:18.768Z,16.83
2023-04-15T01:44:32.759Z,16.85
2023-04-15T01:45:00.718Z,16.85
2023-04-15T01:45:14.698Z,16.86
2023-04-15T01:45:28.685Z,16.83
2023-04-15T01:45:42.681Z,16.83
2023-04-15T01:46:10.657Z,16.85
2023-04-15T01:46:24.705Z,16.83
2023-04-15T01:46:38.710Z,16.83
2023-04-15T01:46:52.765Z,16.83
2023-04-15T01:47:20.790Z,16.85
2023-04-15T01:47:34.847Z,16.83
2023-04-15T01:47:48.894Z,16.83
2023-04-15T01:48:02.925Z,16.83
2023-04-15T01:48:16.981Z,16.85
2023-04-15T01:48:30.961Z,16.85
2023-04-15T01:48:44.943Z,16.83
2023-04-15T01:48:59.237Z,16.85
2023-04-15T01:49:13.416Z,16.85
2023-04-15T01:49:41.405Z,16.85
2023-04-15T01:49:55.388Z,16.83
2023-04-15T01:50:09.374Z,16.83
2023-04-15T01:50:23.403Z,16.81
2023-04-15T01:50:51.376Z,16.83
2023-04-15T01:51:05.360Z,16.85
2023-04-15T01:51:19.349Z,16.83
2023-04-15T01:51:33.320Z,16.85
2023-04-15T01:52:01.290Z,16.85
2023-04-15T01:52:15.290Z,16.83
2023-04-15T01:52:29.285Z,16.86
2023-04-15T01:52:43.288Z,16.83
2023-04-15T01:53:11.238Z,16.81
2023-04-15T01:53:25.241Z,16.85
2023-04-15T01:53:39.233Z,16.83
2023-04-15T01:53:53.213Z,16.85
2023-04-15T01:54:21.200Z,16.85
2023-04-15T01:54:35.194Z,16.85
2023-04-15T01:54:49.182Z,16.85
2023-04-15T01:55:03.185Z,16.83
2023-04-15T01:55:31.184Z,16.85
2023-04-15T01:55:45.171Z,16.85
2023-04-15T01:55:59.165Z,16.83
2023-04-15T01:56:15.276Z,16.83
2023-04-15T01:56:41.876Z,16.83
2023-04-15T01:56:55.875Z,16.85
2023-04-15T01:57:09.878Z,16.85
2023-04-15T01:57:23.893Z,16.85
2023-04-15T01:57:51.838Z,16.83
2023-04-15T01:58:05.809Z,16.85
2023-04-15T01:58:19.805Z,16.83
2023-04-15T01:58:33.788Z,16.85
2023-04-15T01:59:02.090Z,16.83
2023-04-15T01:59:16.321Z,16.83
2023-04-15T01:59:30.319Z,16.83
2023-04-15T01:59:44.313Z,16.83
2023-04-15T02:00:12.269Z,16.83
2023-04-15T02:00:26.253Z,16.83
2023-04-15T02:00:40.283Z,16.83
2023-04-15T02:00:54.339Z,16.83
2023-04-15T02:01:22.427Z,16.83
2023-04-15T02:01:36.471Z,16.83
2023-04-15T02:01:50.472Z,16.83
2023-04-15T02:02:04.715Z,16.83
2023-04-15T02:02:32.828Z,16.83
2023-04-15T02:02:46.922Z,16.81
2023-04-15T02:03:01.043Z,16.83
2023-04-15T02:03:15.222Z,16.83
2023-04-15T02:03:43.374Z,16.83
2023-04-15T02:03:57.450Z,16.83
2023-04-15T02:04:11.582Z,16.81
2023-04-15T02:04:25.638Z,16.83
2023-04-15T02:04:54.360Z,16.83
2023-04-15T02:05:08.350Z,16.83
2023-04-15T02:05:22.350Z,16.83
2023-04-15T02:05:36.347Z,16.81
2023-04-15T02:06:04.313Z,16.83
2023-04-15T02:06:18.346Z,16.83
2023-04-15T02:06:32.370Z,16.83
2023-04-15T02:06:46.362Z,16.85
2023-04-15T02:07:14.343Z,16.85
2023-04-15T02:07:28.339Z,16.81
2023-04-15T02:07:42.323Z,16.83
2023-04-15T02:07:56.323Z,16.83
2023-04-15T02:08:24.284Z,16.83
2023-04-15T02:08:38.267Z,16.81
2023-04-15T02:08:52.271Z,16.81
2023-04-15T02:09:06.264Z,16.83
2023-04-15T02:09:34.231Z,16.83
2023-04-15T02:09:48.252Z,16.81
2023-04-15T02:10:02.273Z,16.81
2023-04-15T02:10:16.270Z,16.81
2023-04-15T02:10:44.225Z,16.81
2023-04-15T02:10:58.205Z,16.81
2023-04-15T02:11:12.202Z,16.81
2023-04-15T02:11:26.186Z,16.81
2023-04-15T02:11:54.214Z,16.81
2023-04-15T02:12:08.244Z,16.81
2023-04-15T02:12:22.247Z,16.81
2023-04-15T02:12:36.248Z,16.81
2023-04-15T02:13:04.211Z,16.81
2023-04-15T02:13:18.223Z,16.81
2023-04-15T02:13:32.218Z,16.81
2023-04-15T02:13:46.216Z,16.85
2023-04-15T02:14:00.189Z,16.81
2023-04-15T02:14:14.195Z,16.80
2023-04-15T02:14:28.201Z,16.83
2023-04-15T02:14:42.199Z,16.83
2023-04-15T02:14:56.198Z,16.81
2023-04-15T02:15:24.188Z,16.81
2023-04-15T02:15:38.184Z,16.83
2023-04-15T02:15:52.221Z,16.81
2023-04-15T02:16:06.271Z,16.81
2023-04-15T02:16:34.290Z,16.80
2023-04-15T02:16:48.399Z,16.81
2023-04-15T02:17:02.475Z,16.81
2023-04-15T02:17:16.457Z,16.81
2023-04-15T02:17:44.455Z,16.80
2023-04-15T02:17:58.530Z,16.81
2023-04-15T02:18:12.532Z,16.80
2023-04-15T02:18:26.524Z,16.81
2023-04-15T02:18:54.513Z,16.81
2023-04-15T02:19:08.544Z,16.80
2023-04-15T02:19:22.566Z,16.85
2023-04-15T02:19:36.550Z,16.81
2023-04-15T02:20:04.529Z,16.81
2023-04-15T02:20:18.520Z,16.81
2023-04-15T02:20:32.534Z,16.81
2023-04-15T02:20:46.531Z,16.81
2023-04-15T02:21:14.506Z,16.81
2023-04-15T02:21:28.490Z,16.81
2023-04-15T02:21:42.482Z,16.81
2023-04-15T02:21:56.477Z,16.80
2023-04-15T02:22:24.466Z,16.81
2023-04-15T02:22:38.455Z,16.80
2023-04-15T02:22:52.454Z,16.80
2023-04-15T02:23:06.447Z,16.80
2023-04-15T02:23:34.422Z,16.81
2023-04-15T02:23:49.365Z,16.78
2023-04-15T02:24:03.337Z,16.80
2023-04-15T02:24:17.337Z,16.80
2023-04-15T02:24:45.332Z,16.80
2023-04-15T02:24:59.364Z,16.80
2023-04-15T02:25:13.369Z,16.81
2023-04-15T02:25:27.339Z,16.81
2023-04-15T02:25:55.307Z,16.80
2023-04-15T02:26:09.289Z,16.80
2023-04-15T02:26:23.280Z,16.80
2023-04-15T02:26:37.272Z,16.78
2023-04-15T02:27:05.242Z,16.81
2023-04-15T02:27:19.240Z,16.81
2023-04-15T02:27:33.232Z,16.81
2023-04-15T02:27:47.251Z,16.81
2023-04-15T02:28:15.253Z,16.80
2023-04-15T02:28:29.234Z,16.80
2023-04-15T02:28:43.215Z,16.80
2023-04-15T02:28:57.193Z,16.81
2023-04-15T02:29:25.165Z,16.80
2023-04-15T02:29:39.155Z,16.80
2023-04-15T02:29:53.144Z,16.80
2023-04-15T02:30:07.143Z,16.81
2023-04-15T02:30:35.129Z,16.80
2023-04-15T02:30:49.136Z,16.80
2023-04-15T02:31:03.152Z,16.80
2023-04-15T02:31:17.179Z,16.78
2023-04-15T02:31:31.232Z,16.80
2023-04-15T02:31:45.307Z,16.78
2023-04-15T02:31:59.417Z,16.80
2023-04-15T02:32:13.459Z,16.77
2023-04-15T02:32:27.541Z,16.80
2023-04-15T02:32:55.547Z,16.80
2023-04-15T02:33:09.593Z,16.80
2023-04-15T02:33:23.580Z,16.80
2023-04-15T02:33:37.568Z,16.78
2023-04-15T02:34:05.559Z,16.78
2023-04-15T02:34:19.577Z,16.78
2023-04-15T02:34:33.567Z,16.78
2023-04-15T02:34:47.558Z,16.80
2023-04-15T02:35:15.504Z,16.78
2023-04-15T02:35:29.488Z,16.78
2023-04-15T02:35:43.485Z,16.80
2023-04-15T02:35:57.468Z,16.78
2023-04-15T02:36:25.448Z,16.78
2023-04-15T02:36:39.445Z,16.78
2023-04-15T02:36:53.446Z,16.78
2023-04-15T02:37:07.425Z,16.78
2023-04-15T02:37:35.377Z,16.78
2023-04-15T02:37:49.360Z,16.77
2023-04-15T02:38:03.334Z,16.78
2023-04-15T02:38:17.352Z,16.77
2023-04-15T02:38:45.362Z,16.77
2023-04-15T02:38:59.620Z,16.78
2023-04-15T02:39:13.801Z,16.78
2023-04-15T02:39:27.792Z,16.78
2023-04-15T02:39:55.750Z,16.78
2023-04-15T02:40:09.733Z,16.80
2023-04-15T02:40:23.705Z,16.80
2023-04-15T02:40:37.697Z,16.77
2023-04-15T02:41:05.648Z,16.78
2023-04-15T02:41:19.622Z,16.80
2023-04-15T02:41:33.645Z,16.78
2023-04-15T02:41:47.658Z,16.80
2023-04-15T02:42:15.635Z,16.80
2023-04-15T02:42:29.619Z,16.80
2023-04-15T02:42:43.602Z,16.80
2023-04-15T02:42:57.600Z,16.77
2023-04-15T02:43:25.647Z,16.78
2023-04-15T02:43:39.638Z,16.81
2023-04-15T02:43:53.630Z,16.78
2023-04-15T02:44:08.301Z,16.80
2023-04-15T02:44:34.735Z,16.80
2023-04-15T02:44:48.712Z,16.80
2023-04-15T02:45:02.695Z,16.80
2023-04-15T02:45:16.692Z,16.78
2023-04-15T02:45:44.676Z,16.80
2023-04-15T02:45:58.725Z,16.80
2023-04-15T02:46:12.828Z,16.81
2023-04-15T02:46:26.937Z,16.78
2023-04-15T02:46:54.942Z,16.80
2023-04-15T02:47:08.946Z,16.80
2023-04-15T02:47:22.960Z,16.80
2023-04-15T02:47:36.964Z,16.80
2023-04-15T02:48:04.928Z,16.80
2023-04-15T02:48:18.923Z,16.78
2023-04-15T02:48:32.918Z,16.81
2023-04-15T02:48:46.913Z,16.80
2023-04-15T02:49:14.894Z,16.80
2023-04-15T02:49:28.869Z,16.78
2023-04-15T02:49:42.886Z,16.78
2023-04-15T02:49:56.865Z,16.78
2023-04-15T02:50:24.828Z,16.80
2023-04-15T02:50:38.817Z,16.78
2023-04-15T02:50:52.936Z,16.80
2023-04-15T02:51:06.938Z,16.78
2023-04-15T02:51:34.899Z,16.78
2023-04-15T02:51:48.890Z,16.78
2023-04-15T02:52:02.888Z,16.78
2023-04-15T02:52:16.887Z,16.80
2023-04-15T02:52:44.834Z,16.78
2023-04-15T02:52:58.824Z,16.80
2023-04-15T02:53:12.804Z,16.78
2023-04-15T02:53:26.856Z,16.77
2023-04-15T02:53:40.855Z,16.78
2023-04-15T02:53:54.875Z,16.78
2023-04-15T02:54:08.869Z,16.77
2023-04-15T02:54:22.874Z,16.78
2023-04-15T02:54:36.865Z,16.80
2023-04-15T02:55:04.803Z,16.78
2023-04-15T02:55:18.801Z,16.78
2023-04-15T02:55:32.794Z,16.80
2023-04-15T02:55:46.787Z,16.78
2023-04-15T02:56:14.759Z,16.78
2023-04-15T02:56:28.768Z,16.78
2023-04-15T02:56:42.752Z,16.78
2023-04-15T02:56:56.758Z,16.78
2023-04-15T02:57:24.716Z,16.78
2023-04-15T02:57:38.708Z,16.78
2023-04-15T02:57:52.706Z,16.78
2023-04-15T02:58:06.689Z,16.80
2023-04-15T02:58:34.649Z,16.78
2023-04-15T02:58:48.647Z,16.78
2023-04-15T02:59:02.790Z,16.78
2023-04-15T02:59:16.934Z,16.77
2023-04-15T02:59:44.923Z,16.77
2023-04-15T02:59:58.901Z,16.78
2023-04-15T03:00:12.903Z,16.80
2023-04-15T03:00:26.900Z,16.78
2023-04-15T03:00:54.871Z,16.78
2023-04-15T03:01:08.933Z,16.77
2023-04-15T03:01:23.171Z,16.78
2023-04-15T03:01:37.367Z,16.80
2023-04-15T03:02:05.342Z,16.78
2023-04-15T03:02:19.386Z,16.80
2023-04-15T03:02:33.514Z,16.78
2023-04-15T03:02:47.728Z,16.77
2023-04-15T03:03:15.956Z,16.78
2023-04-15T03:03:30.225Z,16.78
2023-04-15T03:03:44.470Z,16.77
2023-04-15T03:03:58.606Z,16.80
2023-04-15T03:04:26.675Z,16.77
2023-04-15T03:04:40.689Z,16.77
2023-04-15T03:04:54.671Z,16.78
2023-04-15T03:05:08.655Z,16.77
2023-04-15T03:05:36.605Z,16.77
2023-04-15T03:05:50.581Z,16.77
2023-04-15T03:06:04.586Z,16.77
2023-04-15T03:06:18.605Z,16.77
2023-04-15T03:06:46.591Z,16.77
2023-04-15T03:07:00.589Z,16.77
2023-04-15T03:07:14.597Z,16.77
2023-04-15T03:07:28.630Z,16.75
2023-04-15T03:07:56.563Z,16.75
2023-04-15T03:08:10.561Z,16.77
2023-04-15T03:08:24.575Z,16.75
2023-04-15T03:08:38.608Z,16.77
2023-04-15T03:09:06.572Z,16.77
2023-04-15T03:09:20.562Z,16.75
2023-04-15T03:09:34.569Z,16.77
2023-04-15T03:09:48.557Z,16.77
2023-04-15T03:10:16.564Z,16.75
2023-04-15T03:10:30.579Z,16.75
2023-04-15T03:10:44.567Z,16.77
2023-04-15T03:10:58.555Z,16.75
2023-04-15T03:11:26.538Z,16.77
2023-04-15T03:11:40.548Z,16.75
2023-04-15T03:11:54.590Z,16.77
2023-04-15T03:12:08.581Z,16.77
2023-04-15T03:12:36.548Z,16.77
2023-04-15T03:12:50.544Z,16.77
2023-04-15T03:13:04.533Z,16.77
2023-04-15T03:13:18.535Z,16.75
2023-04-15T03:13:46.506Z,16.77
2023-04-15T03:14:00.486Z,16.75
2023-04-15T03:14:14.484Z,16.77
2023-04-15T03:14:28.480Z,16.75
2023-04-15T03:14:56.455Z,16.75
2023-04-15T03:15:10.448Z,16.77
2023-04-15T03:15:24.438Z,16.75
2023-04-15T03:15:38.442Z,16.75
2023-04-15T03:16:06.551Z,16.75
2023-04-15T03:16:20.691Z,16.75
2023-04-15T03:16:34.712Z,16.75
2023-04-15T03:16:48.696Z,16.75
2023-04-15T03:17:16.634Z,16.75
2023-04-15T03:17:30.622Z,16.75
2023-04-15T03:17:44.655Z,16.75
2023-04-15T03:17:58.705Z,16.75
2023-04-15T03:18:26.702Z,16.77
2023-04-15T03:18:40.692Z,16.75
2023-04-15T03:18:54.695Z,16.77
2023-04-15T03:19:08.680Z,16.77
2023-04-15T03:19:22.709Z,16.75
2023-04-15T03:19:36.700Z,16.75
2023-04-15T03:19:50.682Z,16.77
2023-04-15T03:20:04.710Z,16.75
2023-04-15T03:20:18.747Z,16.75
2023-04-15T03:20:46.788Z,16.77
2023-04-15T03:21:00.825Z,16.75
2023-04-15T03:21:14.815Z,16.75
2023-04-15T03:21:28.805Z,16.75
2023-04-15T03:21:56.751Z,16.75
2023-04-15T03:22:10.729Z,16.77
2023-04-15T03:22:24.725Z,16.75
2023-04-15T03:22:38.708Z,16.77
2023-04-15T03:23:06.667Z,16.77
2023-04-15T03:23:20.660Z,16.75
2023-04-15T03:23:34.666Z,16.77
2023-04-15T03:23:48.662Z,16.77
2023-04-15T03:24:16.645Z,16.74
2023-04-15T03:24:30.636Z,16.77
2023-04-15T03:24:44.623Z,16.74
2023-04-15T03:24:58.597Z,16.75
2023-04-15T03:25:26.586Z,16.75
2023-04-15T03:25:40.579Z,16.75
2023-04-15T03:25:54.574Z,16.77
2023-04-15T03:26:08.563Z,16.74
2023-04-15T03:26:36.525Z,16.77
2023-04-15T03:26:50.505Z,16.75
2023-04-15T03:27:04.492Z,16.74
2023-04-15T03:27:18.484Z,16.74
2023-04-15T03:27:46.442Z,16.74
2023-04-15T03:28:00.447Z,16.74
2023-04-15T03:28:14.440Z,16.77
2023-04-15T03:28:28.431Z,16.75
2023-04-15T03:28:56.456Z,16.74
2023-04-15T03:29:10.443Z,16.74
2023-04-15T03:29:24.423Z,16.74
2023-04-15T03:29:38.425Z,16.74
2023-04-15T03:30:06.396Z,16.75
2023-04-15T03:30:20.381Z,16.75
2023-04-15T03:30:34.374Z,16.75
2023-04-15T03:30:48.372Z,16.75
2023-04-15T03:31:16.421Z,16.74
2023-04-15T03:31:30.558Z,16.74
2023-04-15T03:31:44.604Z,16.74
2023-04-15T03:31:58.611Z,16.75
2023-04-15T03:32:26.569Z,16.74
2023-04-15T03:32:40.571Z,16.74
2023-04-15T03:32:54.610Z,16.74
2023-04-15T03:33:08.640Z,16.74
2023-04-15T03:33:36.599Z,16.75
2023-04-15T03:33:50.590Z,16.74
2023-04-15T03:34:04.600Z,16.74
2023-04-15T03:34:18.611Z,16.74
2023-04-15T03:34:46.572Z,16.74
2023-04-15T03:35:00.575Z,16.74
2023-04-15T03:35:14.597Z,16.75
2023-04-15T03:35:28.574Z,16.74
2023-04-15T03:35:56.529Z,16.74
2023-04-15T03:36:10.527Z,16.74
2023-04-15T03:36:24.511Z,16.74
2023-04-15T03:36:38.498Z,16.75
2023-04-15T03:36:52.506Z,16.74
2023-04-15T03:37:06.487Z,16.74
2023-04-15T03:37:20.471Z,16.74
2023-04-15T03:37:34.457Z,16.74
2023-04-15T03:37:48.447Z,16.75
2023-04-15T03:38:16.444Z,16.74
2023-04-15T03:38:30.431Z,16.75
2023-04-15T03:38:44.433Z,16.75
2023-04-15T03:38:58.627Z,16.75
2023-04-15T03:39:26.738Z,16.75
2023-04-15T03:39:40.729Z,16.75
2023-04-15T03:39:54.766Z,16.75
2023-04-15T03:40:08.751Z,16.74
2023-04-15T03:40:36.734Z,16.74
2023-04-15T03:40:50.715Z,16.74
2023-04-15T03:41:04.710Z,16.74
2023-04-15T03:41:18.696Z,16.75
2023-04-15T03:41:46.646Z,16.75
2023-04-15T03:42:00.646Z,16.73